Lyons, Ohio
Current Conditions -  °F | °C
As of 10:55 PM on Saturday 25 Oct 2014 (Local Time) from KUSE Reporting Station
Clear Clear  
Wind Chill: 50°   Ceiling: Unl
Heat Index: 50°   Visibility: 10mi
Dew Point: 34°   Wind: 7mph
Humidity: 54%   Direction: 280°W
Pressure: 29.87"   Gusts: NA
Location:  41.7°N, 84.07°W
Report Text: KUSE 260255Z AUTO 28006KT 10SM CLR 10/01 A2987 RMK AO2
Loading
Personal Weather Stations






























Interactive Weather Map
Tropical Storm Tracking
New forecast layout! Learn more

10-Day Weather Forecast

Advertisements
Track Severe Weather on mobile